Time;durP1;ratioP1;P1;durP2;ratioP2;P2;SDS_P1;SDS_P2;PMS_P1;PMS_P2;Temp;Humidity;BMP_temperature;BMP_pressure;BME280_temperature;BME280_humidity;BME280_pressure;Samples;Min_cycle;Max_cycle;Signal;HPM_P1;HPM_P2
2023/10/09 00:01:24;;;;;;;;;;;;;;;12.39;100.00;101974.53;5048749;28;19916;-66
2023/10/09 00:03:53;;;;;;;;;;;;;;;12.37;100.00;101982.44;5062389;28;19921;-65
2023/10/09 00:06:30;;;;;;;;;;;;;;;12.34;100.00;101978.91;5084082;28;20370;-65
2023/10/09 00:08:58;;;;;;;;;;;;;;;12.29;100.00;101969.28;5074733;28;19924;-65
2023/10/09 00:11:29;;;;;;;;;;;;;;;12.33;100.00;101978.06;5055558;28;20402;-66
2023/10/09 00:13:57;;;;;;;;;;;;;;;12.34;100.00;101974.56;5064624;28;19975;-63
2023/10/09 00:16:40;;;;;;;;;;;;;;;12.34;100.00;101966.69;5082258;28;19920;-63
2023/10/09 00:19:51;;;;;;;;;;;;;;;12.36;100.00;101972.78;5067056;28;19916;-63
2023/10/09 00:21:55;;;;;;;;;;;;;;;12.37;100.00;101974.56;5050761;28;19912;-63
2023/10/09 00:24:24;;;;;;;;;;;;;;;12.36;100.00;101962.28;5079670;28;20021;-63
2023/10/09 00:26:55;;;;;;;;;;;;;;;12.41;100.00;101955.28;5051633;28;19912;-65
2023/10/09 00:29:26;;;;;;;;;;;;;;;12.50;100.00;101950.84;5050029;28;19970;-66
2023/10/09 00:32:13;;;;;;;;;;;;;;;12.54;100.00;101939.47;5079195;28;19924;-65
2023/10/09 00:34:41;;;;;;;;;;;;;;;12.57;100.00;101939.44;5055628;28;20376;-65
2023/10/09 00:37:16;;;;;;;;;;;;;;;12.62;100.00;101942.94;5050852;28;19928;-65
2023/10/09 00:39:43;;;;;;;;;;;;;;;12.66;100.00;101936.81;5052369;28;19913;-66
2023/10/09 00:42:12;;;;;;;;;;;;;;;12.70;100.00;101935.94;5080802;28;19920;-65
2023/10/09 00:44:42;;;;;;;;;;;;;;;12.76;100.00;101937.66;5057501;28;19916;-65
2023/10/09 00:47:21;;;;;;;;;;;;;;;12.80;100.00;101929.75;5068334;28;20066;-63
2023/10/09 00:49:54;;;;;;;;;;;;;;;12.88;100.00;101913.06;5068456;28;19959;-65
2023/10/09 00:52:31;;;;;;;;;;;;;;;12.96;100.00;101932.31;5044281;28;19921;-65
2023/10/09 00:55:00;;;;;;;;;;;;;;;13.03;100.00;101928.78;5066024;28;19917;-66
2023/10/09 00:57:26;;;;;;;;;;;;;;;13.09;100.00;101939.28;5084419;28;19973;-65
2023/10/09 00:59:59;;;;;;;;;;;;;;;13.14;100.00;101940.09;5069735;28;20003;-66
2023/10/09 01:02:35;;;;;;;;;;;;;;;13.17;100.00;101947.13;5053122;28;19917;-66
2023/10/09 01:05:09;;;;;;;;;;;;;;;13.24;100.00;101938.31;5068994;28;20015;-65
2023/10/09 01:07:36;;;;;;;;;;;;;;;13.28;100.00;101936.56;5051460;28;19931;-65
2023/10/09 01:10:16;;;;;;;;;;;;;;;13.31;100.00;101939.16;5067434;28;20411;-66
2023/10/09 01:12:44;;;;;;;;;;;;;;;13.36;100.00;101944.44;5046969;28;19928;-66
2023/10/09 01:15:17;;;;;;;;;;;;;;;13.40;100.00;101936.50;5076015;28;19920;-65
2023/10/09 01:17:45;;;;;;;;;;;;;;;13.44;100.00;101940.88;5043774;28;19916;-66
2023/10/09 01:20:16;;;;;;;;;;;;;;;13.46;100.00;101938.22;5047330;28;19925;-65
2023/10/09 01:22:43;;;;;;;;;;;;;;;13.48;100.00;101934.69;5069328;28;20375;-65
2023/10/09 01:25:09;;;;;;;;;;;;;;;13.49;100.00;101936.47;5069195;28;20226;-66
2023/10/09 01:27:35;;;;;;;;;;;;;;;13.50;100.00;101924.16;5086356;28;20369;-66
2023/10/09 01:30:00;;;;;;;;;;;;;;;13.50;100.00;101930.31;5047774;28;19921;-65
2023/10/09 01:32:26;;;;;;;;;;;;;;;13.49;100.00;101931.19;5046249;28;20295;-66
2023/10/09 01:34:54;;;;;;;;;;;;;;;13.49;100.00;101933.81;5068720;28;19920;-66
2023/10/09 01:37:22;;;;;;;;;;;;;;;13.50;100.00;101945.22;5052579;28;20367;-66
2023/10/09 01:39:51;;;;;;;;;;;;;;;13.50;100.00;101940.84;5080783;28;19924;-66
2023/10/09 01:42:44;;;;;;;;;;;;;;;13.52;100.00;101935.56;5030139;28;19923;-65
2023/10/09 01:45:26;;;;;;;;;;;;;;;13.54;100.00;101932.91;5072857;28;19927;-66
2023/10/09 01:47:53;;;;;;;;;;;;;;;13.58;100.00;101934.66;5071667;28;20306;-65
2023/10/09 01:50:20;;;;;;;;;;;;;;;13.59;100.00;101932.00;5087694;28;19931;-65
2023/10/09 01:52:45;;;;;;;;;;;;;;;13.62;100.00;101931.09;5053340;28;19978;-63
2023/10/09 01:55:27;;;;;;;;;;;;;;;13.64;100.00;101929.34;5056341;28;19924;-65
2023/10/09 01:57:53;;;;;;;;;;;;;;;13.66;100.00;101931.06;5087033;28;20374;-63
2023/10/09 02:00:23;;;;;;;;;;;;;;;13.67;100.00;101926.66;5054146;28;19921;-63
2023/10/09 02:02:50;;;;;;;;;;;;;;;13.69;100.00;101920.50;5069027;28;19925;-63
2023/10/09 02:07:41;;;;;;;;;;;;;;;13.72;100.00;101911.72;5051623;28;19927;-66
2023/10/09 02:10:21;;;;;;;;;;;;;;;13.76;100.00;101920.47;5059791;28;19924;-65
2023/10/09 02:12:46;;;;;;;;;;;;;;;13.76;100.00;101931.84;5052452;28;19962;-65
2023/10/09 02:15:15;;;;;;;;;;;;;;;13.77;100.00;101928.34;5053910;28;19921;-65
2023/10/09 02:17:52;;;;;;;;;;;;;;;13.80;100.00;101930.94;5083967;28;20486;-66
2023/10/09 02:20:28;;;;;;;;;;;;;;;13.83;100.00;101920.41;5054921;28;19927;-66
2023/10/09 02:22:53;;;;;;;;;;;;;;;13.84;100.00;101922.16;5075093;28;20380;-63
2023/10/09 02:25:21;;;;;;;;;;;;;;;13.88;100.00;101914.22;5072146;28;19921;-63
2023/10/09 02:27:53;;;;;;;;;;;;;;;13.89;100.00;101910.69;5069944;28;19920;-63
2023/10/09 02:30:26;;;;;;;;;;;;;;;13.90;100.00;101912.44;5087859;28;19932;-63
2023/10/09 02:32:53;;;;;;;;;;;;;;;13.90;100.00;101915.94;5053846;28;19917;-63
2023/10/09 02:35:28;;;;;;;;;;;;;;;13.90;100.00;101902.78;5068566;28;19917;-63
2023/10/09 02:37:53;;;;;;;;;;;;;;;13.92;100.00;101903.66;5054956;28;20221;-63
2023/10/09 02:40:25;;;;;;;;;;;;;;;13.94;100.00;101901.00;5064259;28;19942;-63
2023/10/09 02:42:50;;;;;;;;;;;;;;;13.95;100.00;101892.19;5071498;28;19924;-63
2023/10/09 02:45:18;;;;;;;;;;;;;;;13.96;100.00;101901.84;5055577;28;20265;-63
2023/10/09 02:47:48;;;;;;;;;;;;;;;13.97;100.00;101891.28;5053028;28;19999;-66
2023/10/09 02:50:28;;;;;;;;;;;;;;;13.97;100.00;101890.44;5083855;28;19967;-65
2023/10/09 02:52:59;;;;;;;;;;;;;;;13.96;100.00;101879.00;5076512;28;19920;-66
2023/10/09 02:55:26;;;;;;;;;;;;;;;13.95;100.00;101879.00;5054084;28;20007;-66
2023/10/09 02:58:20;;;;;;;;;;;;;;;13.95;100.00;101879.91;5072801;28;19917;-64
2023/10/09 03:00:46;;;;;;;;;;;;;;;13.95;100.00;101884.28;5071978;28;20252;-63
2023/10/09 03:03:12;;;;;;;;;;;;;;;13.94;100.00;101886.06;5070163;28;19929;-63
2023/10/09 03:05:42;;;;;;;;;;;;;;;13.95;100.00;101881.66;5071723;28;19931;-63
2023/10/09 03:08:08;;;;;;;;;;;;;;;13.96;100.00;101888.69;5067682;28;19920;-63
2023/10/09 03:10:34;;;;;;;;;;;;;;;13.96;100.00;101894.81;5084666;28;20049;-64
2023/10/09 03:12:59;;;;;;;;;;;;;;;13.95;100.00;101892.19;5055254;28;20381;-64
2023/10/09 03:15:25;;;;;;;;;;;;;;;13.96;100.00;101886.91;5086476;28;19921;-63
2023/10/09 03:17:50;;;;;;;;;;;;;;;13.96;100.00;101876.34;5066361;28;19927;-63
2023/10/09 03:20:17;;;;;;;;;;;;;;;13.98;100.00;101877.25;5064740;28;19985;-63
2023/10/09 03:22:44;;;;;;;;;;;;;;;13.98;100.00;101868.47;5071673;28;20018;-63
2023/10/09 03:25:13;;;;;;;;;;;;;;;14.00;100.00;101856.13;5070067;28;20011;-63
2023/10/09 03:27:47;;;;;;;;;;;;;;;13.98;100.00;101858.78;5057247;28;19923;-63
2023/10/09 03:30:22;;;;;;;;;;;;;;;13.99;100.00;101860.53;5040574;28;19943;-63
2023/10/09 03:32:51;;;;;;;;;;;;;;;14.00;100.00;101861.41;5081930;28;19970;-63
2023/10/09 03:35:23;;;;;;;;;;;;;;;14.00;100.00;101862.28;5069708;28;19916;-63
2023/10/09 03:37:49;;;;;;;;;;;;;;;14.01;100.00;101865.81;5053596;28;19924;-64
2023/10/09 03:40:17;;;;;;;;;;;;;;;14.00;100.00;101853.50;5054586;28;19916;-63
2023/10/09 03:42:43;;;;;;;;;;;;;;;13.99;100.00;101844.72;5053852;28;19951;-64
2023/10/09 03:45:12;;;;;;;;;;;;;;;14.00;100.00;101843.81;5088058;28;19975;-63
2023/10/09 03:47:41;;;;;;;;;;;;;;;14.00;100.00;101841.19;5053561;28;19925;-63
2023/10/09 03:50:23;;;;;;;;;;;;;;;14.00;100.00;101838.56;5054147;28;19931;-64
2023/10/09 03:52:50;;;;;;;;;;;;;;;13.99;100.00;101852.63;5054165;28;20402;-63
2023/10/09 03:55:15;;;;;;;;;;;;;;;13.99;100.00;101857.91;5047843;28;19971;-63
2023/10/09 03:57:41;;;;;;;;;;;;;;;13.98;100.00;101853.53;5051585;28;19916;-63
2023/10/09 04:00:11;;;;;;;;;;;;;;;13.99;100.00;101855.28;5086313;28;19924;-64
2023/10/09 04:02:36;;;;;;;;;;;;;;;13.99;100.00;101849.13;5063433;28;19917;-63
2023/10/09 04:05:01;;;;;;;;;;;;;;;14.01;100.00;101844.72;5087684;28;19916;-64
2023/10/09 04:07:28;;;;;;;;;;;;;;;14.01;100.00;101850.00;5055909;28;20363;-64
2023/10/09 04:10:32;;;;;;;;;;;;;;;14.02;100.00;101843.81;5071053;28;19924;-64
2023/10/09 04:12:39;;;;;;;;;;;;;;;14.03;100.00;101845.56;5084271;28;20372;-64
2023/10/09 04:15:06;;;;;;;;;;;;;;;14.03;100.00;101849.06;5087871;28;19927;-64
2023/10/09 04:17:34;;;;;;;;;;;;;;;14.04;100.00;101834.13;5069230;28;19924;-64
2023/10/09 04:22:51;;;;;;;;;;;;;;;14.06;100.00;101819.16;5062891;28;20316;-64
2023/10/09 04:25:27;;;;;;;;;;;;;;;14.06;100.00;101816.53;5085750;28;20426;-64
2023/10/09 04:28:42;;;;;;;;;;;;;;;14.08;100.00;101819.16;5051807;28;20000;-64
2023/10/09 04:30:46;;;;;;;;;;;;;;;14.07;100.00;101820.94;5056912;28;19928;-64
2023/10/09 04:36:22;;;;;;;;;;;;;;;14.10;100.00;101825.31;5068163;28;19957;-64
2023/10/09 04:41:51;;;;;;;;;;;;;;;14.13;100.00;101864.78;5073395;28;20015;-63
2023/10/09 04:44:22;;;;;;;;;;;;;;;14.14;100.00;101870.06;5070077;28;19919;-66
2023/10/09 04:49:49;;;;;;;;;;;;;;;14.17;100.00;101872.66;5068844;28;20418;-64
2023/10/09 04:52:51;;;;;;;;;;;;;;;14.17;100.00;101877.06;5082803;28;20295;-64
2023/10/09 04:55:16;;;;;;;;;;;;;;;14.17;100.00;101880.56;5061358;28;19943;-66
2023/10/09 04:57:46;;;;;;;;;;;;;;;14.17;100.00;101874.44;5054010;28;19927;-66
2023/10/09 05:01:14;;;;;;;;;;;;;;;14.17;100.00;101880.56;5065330;28;19921;-66
2023/10/09 05:03:11;;;;;;;;;;;;;;;14.17;100.00;101877.91;5049261;28;19924;-66
2023/10/09 05:08:45;;;;;;;;;;;;;;;14.16;100.00;101881.44;5071448;28;19962;-66
2023/10/09 05:16:13;;;;;;;;;;;;;;;14.15;100.00;101869.16;5074107;28;19924;-64
2023/10/09 05:18:44;;;;;;;;;;;;;;;14.15;100.00;101860.38;5055576;28;20007;-66
2023/10/09 05:23:48;;;;;;;;;;;;;;;14.15;100.00;101855.09;5074557;28;20264;-64
2023/10/09 05:29:18;;;;;;;;;;;;;;;14.14;100.00;101880.59;5072543;28;19923;-64
2023/10/09 05:31:56;;;;;;;;;;;;;;;14.15;100.00;101871.81;5069691;28;20371;-64
2023/10/09 05:34:22;;;;;;;;;;;;;;;14.14;100.00;101880.59;5055751;28;20332;-64
2023/10/09 05:36:48;;;;;;;;;;;;;;;14.15;100.00;101897.28;5054455;28;20007;-64
2023/10/09 05:39:17;;;;;;;;;;;;;;;14.13;100.00;101894.66;5074120;28;20020;-64
2023/10/09 05:49:46;;;;;;;;;;;;;;;14.14;100.00;101901.69;5204436;22;20301;-64
2023/10/09 06:13:47;;;;;;;;;;;;;;;14.20;100.00;101927.13;5126347;22;20212;-64
2023/10/09 06:24:14;;;;;;;;;;;;;;;14.25;100.00;101924.41;5067970;28;20442;-66
2023/10/09 06:26:51;;;;;;;;;;;;;;;14.25;100.00;101919.16;5121264;22;20077;-64
2023/10/09 06:29:30;;;;;;;;;;;;;;;14.26;100.00;101916.50;5148415;22;20430;-64
2023/10/09 06:31:59;;;;;;;;;;;;;;;14.27;100.00;101914.75;5452263;22;19983;-66
2023/10/09 06:34:35;;;;;;;;;;;;;;;14.29;100.00;101928.78;5053897;28;20024;-65
2023/10/09 06:37:18;;;;;;;;;;;;;;;14.30;100.00;101930.53;5061187;28;20279;-66
2023/10/09 06:48:40;;;;;;;;;;;;;;;14.38;100.00;101920.78;5069952;28;19921;-66
2023/10/09 06:53:19;;;;;;;;;;;;;;;14.40;100.00;101911.09;5072708;28;19974;-66
2023/10/09 06:56:05;;;;;;;;;;;;;;;14.42;100.00;101901.38;5054255;28;20368;-66
2023/10/09 06:58:41;;;;;;;;;;;;;;;14.43;100.00;101905.78;5058114;28;20046;-64
2023/10/09 07:03:53;;;;;;;;;;;;;;;14.51;100.00;101885.47;5066112;28;20260;-64
2023/10/09 07:14:06;;;;;;;;;;;;;;;14.62;100.00;101889.78;5066838;28;19929;-66
2023/10/09 07:16:38;;;;;;;;;;;;;;;14.65;100.00;101874.81;5044732;28;20277;-66
2023/10/09 07:19:09;;;;;;;;;;;;;;;14.71;100.00;101860.63;5054676;28;19990;-66
2023/10/09 07:21:35;;;;;;;;;;;;;;;14.73;100.00;101843.03;5066929;28;19925;-66
2023/10/09 07:24:14;;;;;;;;;;;;;;;14.77;100.00;101867.59;5065599;28;19927;-66
2023/10/09 07:26:47;;;;;;;;;;;;;;;14.81;100.00;101888.69;5069331;28;19927;-66
2023/10/09 07:29:21;;;;;;;;;;;;;;;14.86;100.00;101907.09;5054534;28;19920;-66
2023/10/09 07:31:47;;;;;;;;;;;;;;;14.92;100.00;101921.97;5057210;28;20288;-66
2023/10/09 07:37:04;;;;;;;;;;;;;;;15.03;100.00;101926.22;5063568;28;19920;-64
2023/10/09 07:39:34;;;;;;;;;;;;;;;15.04;100.00;101930.59;5049145;28;19916;-64
2023/10/09 07:42:18;;;;;;;;;;;;;;;15.06;100.00;101939.38;5071287;28;19959;-64
2023/10/09 07:44:52;;;;;;;;;;;;;;;15.10;100.00;101956.06;5057102;28;19917;-64
2023/10/09 07:47:22;;;;;;;;;;;;;;;15.11;100.00;101949.00;5053361;28;19924;-64
2023/10/09 07:49:54;;;;;;;;;;;;;;;15.10;100.00;101948.13;5050202;28;19924;-64
2023/10/09 07:52:21;;;;;;;;;;;;;;;15.10;100.00;101950.78;5071054;28;19920;-66
2023/10/09 07:54:49;;;;;;;;;;;;;;;15.12;100.00;101956.03;5070717;28;19912;-66
2023/10/09 07:57:16;;;;;;;;;;;;;;;15.14;100.00;101939.28;5054830;28;19924;-66
2023/10/09 07:59:54;;;;;;;;;;;;;;;15.15;100.00;101929.59;5065697;28;19916;-66
2023/10/09 08:02:31;;;;;;;;;;;;;;;15.15;100.00;101919.03;5055619;28;20355;-66
2023/10/09 08:05:03;;;;;;;;;;;;;;;15.19;100.00;101905.75;5065130;28;19927;-66
2023/10/09 08:07:34;;;;;;;;;;;;;;;15.16;100.00;101905.81;5072662;28;20288;-66
2023/10/09 08:17:59;;;;;;;;;;;;;;;15.27;100.00;101954.94;5065436;28;19916;-64
2023/10/09 08:20:25;;;;;;;;;;;;;;;15.31;100.00;101938.16;5042942;28;19921;-64
2023/10/09 08:22:56;;;;;;;;;;;;;;;15.38;100.00;101916.06;5070797;28;20339;-64
2023/10/09 08:25:29;;;;;;;;;;;;;;;15.39;100.00;101899.31;5066615;28;20370;-64
2023/10/09 08:27:54;;;;;;;;;;;;;;;15.41;100.00;101910.72;5057753;28;19964;-64
2023/10/09 08:33:00;;;;;;;;;;;;;;;15.51;100.00;101896.47;5070890;28;20322;-64
2023/10/09 08:35:49;;;;;;;;;;;;;;;15.59;100.00;101893.72;5041720;28;19938;-64
2023/10/09 08:38:22;;;;;;;;;;;;;;;15.69;100.00;101883.91;5053429;28;19912;-64
2023/10/09 08:40:50;;;;;;;;;;;;;;;15.77;100.00;101887.25;5044995;28;19986;-64
2023/10/09 08:43:16;;;;;;;;;;;;;;;15.86;100.00;101887.16;5051614;28;19916;-64
2023/10/09 08:46:01;;;;;;;;;;;;;;;15.93;100.00;101887.91;5053978;28;19920;-64
2023/10/09 08:48:27;;;;;;;;;;;;;;;16.06;100.00;101894.72;5056034;28;19919;-66
2023/10/09 08:50:56;;;;;;;;;;;;;;;16.16;100.00;101900.72;5056278;28;19921;-66
2023/10/09 08:53:22;;;;;;;;;;;;;;;16.23;100.00;101897.06;5069267;28;19958;-64
2023/10/09 08:55:47;;;;;;;;;;;;;;;16.30;100.00;101897.81;5037249;28;19982;-64
2023/10/09 08:58:26;;;;;;;;;;;;;;;16.39;100.00;101902.06;5057632;28;20318;-64
2023/10/09 09:00:52;;;;;;;;;;;;;;;16.56;100.00;101925.53;5040551;28;19920;-66
2023/10/09 09:03:22;;;;;;;;;;;;;;;16.76;100.00;101944.53;5051602;28;19920;-66
2023/10/09 09:05:56;;;;;;;;;;;;;;;17.02;100.00;101948.47;5057390;28;19916;-66
2023/10/09 09:08:25;;;;;;;;;;;;;;;17.27;100.00;101956.75;5057507;28;19974;-67
2023/10/09 09:13:49;;;;;;;;;;;;;;;17.70;99.30;101952.25;5067943;28;19923;-66
2023/10/09 09:16:16;;;;;;;;;;;;;;;17.88;98.16;101964.19;5035171;28;19924;-64
2023/10/09 09:19:04;;;;;;;;;;;;;;;18.02;97.74;101969.19;5054846;28;19916;-68
2023/10/09 09:21:32;;;;;;;;;;;;;;;18.15;96.38;101972.41;5042445;28;19927;-66
2023/10/09 09:24:03;;;;;;;;;;;;;;;18.19;95.13;101966.13;5032411;28;19923;-66
2023/10/09 09:26:36;;;;;;;;;;;;;;;18.25;95.86;101965.09;5057454;28;19920;-66
2023/10/09 09:29:03;;;;;;;;;;;;;;;18.30;94.98;101964.06;5057218;28;20016;-66
2023/10/09 09:31:28;;;;;;;;;;;;;;;18.30;95.07;101963.16;5057362;28;19927;-67
2023/10/09 09:34:03;;;;;;;;;;;;;;;18.38;95.47;101966.50;5070309;28;20427;-67
2023/10/09 09:36:33;;;;;;;;;;;;;;;18.43;95.15;101977.88;5057356;28;19927;-64
2023/10/09 09:39:01;;;;;;;;;;;;;;;18.51;95.58;101969.69;5073412;28;19920;-64
2023/10/09 09:41:27;;;;;;;;;;;;;;;18.59;95.29;101980.97;5057421;28;19916;-64
2023/10/09 09:43:56;;;;;;;;;;;;;;;18.60;94.86;101982.69;5053120;28;19978;-64
2023/10/09 09:46:35;;;;;;;;;;;;;;;18.70;95.49;101996.59;5056867;28;19917;-64
2023/10/09 09:49:01;;;;;;;;;;;;;;;18.76;94.66;101987.59;5064828;28;19920;-64
2023/10/09 09:51:29;;;;;;;;;;;;;;;18.80;94.63;101992.78;5073255;28;19927;-64
2023/10/09 09:53:55;;;;;;;;;;;;;;;18.85;94.79;101985.56;5072879;28;20334;-66
2023/10/09 09:56:24;;;;;;;;;;;;;;;18.92;94.45;101988.06;5054954;28;20007;-67
2023/10/09 09:58:53;;;;;;;;;;;;;;;18.86;92.54;101989.06;5072478;28;20375;-67
2023/10/09 10:01:26;;;;;;;;;;;;;;;18.87;94.17;101978.44;5056971;28;19920;-66
2023/10/09 10:03:58;;;;;;;;;;;;;;;18.97;94.05;101983.50;5068094;28;20359;-66
2023/10/09 10:06:26;;;;;;;;;;;;;;;19.01;92.85;101978.06;5080217;28;19972;-67
2023/10/09 10:08:52;;;;;;;;;;;;;;;19.02;92.59;101989.53;5065319;28;19966;-66
2023/10/09 10:11:51;;;;;;;;;;;;;;;19.13;93.11;101983.94;5071610;28;19920;-67
2023/10/09 10:14:43;;;;;;;;;;;;;;;19.20;92.73;101988.13;5057681;28;20010;-66
2023/10/09 10:17:21;;;;;;;;;;;;;;;19.31;92.06;101980.72;5069684;28;20054;-66
2023/10/09 10:20:00;;;;;;;;;;;;;;;19.38;92.69;101974.31;5065642;28;19926;-66
2023/10/09 10:22:30;;;;;;;;;;;;;;;19.41;92.09;101983.97;5053963;28;19924;-64
2023/10/09 10:25:02;;;;;;;;;;;;;;;19.47;91.89;101981.13;5066244;28;19916;-64
2023/10/09 10:27:44;;;;;;;;;;;;;;;19.47;91.71;101983.78;5053389;28;19950;-64
2023/10/09 10:30:13;;;;;;;;;;;;;;;19.48;91.74;101985.53;5053256;28;20384;-64
2023/10/09 10:33:22;;;;;;;;;;;;;;;19.51;91.50;101982.75;5067489;28;19924;-64
2023/10/09 10:38:32;;;;;;;;;;;;;;;19.47;91.36;101980.25;5070581;28;20345;-64
2023/10/09 10:41:11;;;;;;;;;;;;;;;19.58;91.30;101974.59;5062554;28;19960;-64
2023/10/09 10:49:15;;;;;;;;;;;;;;;19.93;91.02;101976.16;5071402;28;19950;-64
2023/10/09 10:51:49;;;;;;;;;;;;;;;20.10;90.63;101978.25;5051574;28;19924;-67
2023/10/09 10:54:45;;;;;;;;;;;;;;;20.13;89.43;101978.16;5072099;28;20376;-66
2023/10/09 10:57:28;;;;;;;;;;;;;;;20.08;90.13;101980.97;5069291;28;19995;-64
2023/10/09 11:00:12;;;;;;;;;;;;;;;20.07;89.75;101979.22;5064880;28;20395;-64
2023/10/09 11:02:37;;;;;;;;;;;;;;;19.98;88.56;101979.50;5071666;28;19912;-64
2023/10/09 11:05:23;;;;;;;;;;;;;;;19.97;89.87;101990.19;5053603;28;19927;-64
2023/10/09 11:07:52;;;;;;;;;;;;;;;20.08;89.80;101990.72;5051504;28;19929;-64
2023/10/09 11:10:27;;;;;;;;;;;;;;;20.24;89.33;101985.75;5068595;28;19923;-64
2023/10/09 11:15:37;;;;;;;;;;;;;;;20.36;88.31;101990.66;5066367;28;20015;-64
2023/10/09 11:26:21;;;;;;;;;;;;;;;21.00;87.73;101983.09;5066139;28;20592;-66
2023/10/09 11:29:13;;;;;;;;;;;;;;;21.18;85.85;101978.88;5065148;28;19999;-67
2023/10/09 11:31:33;;;;;;;;;;;;;;;21.17;86.08;101983.31;5064400;28;20039;-66
2023/10/09 11:34:01;;;;;;;;;;;;;;;21.16;85.57;101975.38;5046994;28;19927;-64
2023/10/09 11:36:32;;;;;;;;;;;;;;;21.13;84.97;101980.84;5054803;28;19928;-64
2023/10/09 11:39:16;;;;;;;;;;;;;;;21.20;86.08;101982.34;5029979;28;19977;-64
2023/10/09 11:41:41;;;;;;;;;;;;;;;21.33;85.26;101977.41;5054494;28;19912;-65
2023/10/09 11:44:18;;;;;;;;;;;;;;;21.40;85.76;101971.75;5037176;28;19917;-67
2023/10/09 11:46:58;;;;;;;;;;;;;;;21.45;85.85;101974.28;5043951;28;20391;-66
2023/10/09 11:49:34;;;;;;;;;;;;;;;21.50;85.33;101969.59;5048142;28;19920;-67
2023/10/09 11:54:35;;;;;;;;;;;;;;;21.26;84.53;101974.09;5071606;28;20442;-64
2023/10/09 11:57:03;;;;;;;;;;;;;;;21.27;85.38;101976.69;5045129;28;20012;-64
2023/10/09 11:59:37;;;;;;;;;;;;;;;21.27;85.83;101973.19;5034784;28;19978;-64
2023/10/09 12:02:04;;;;;;;;;;;;;;;21.24;85.65;101983.97;5049706;28;19916;-65
2023/10/09 12:04:32;;;;;;;;;;;;;;;21.13;84.15;101975.50;5034747;28;19955;-65
2023/10/09 12:07:06;;;;;;;;;;;;;;;21.01;84.99;101972.38;5051974;28;19916;-67
2023/10/09 12:09:34;;;;;;;;;;;;;;;20.98;85.88;101975.16;5037258;28;19921;-66
2023/10/09 12:12:01;;;;;;;;;;;;;;;20.90;85.44;101979.91;5053855;28;19995;-67
2023/10/09 12:14:33;;;;;;;;;;;;;;;20.85;85.62;101973.91;5044229;28;19916;-67
2023/10/09 12:16:58;;;;;;;;;;;;;;;20.75;85.32;101970.69;5037626;28;19936;-67
2023/10/09 12:19:24;;;;;;;;;;;;;;;20.72;87.17;101961.00;5051514;28;19916;-66
2023/10/09 12:21:52;;;;;;;;;;;;;;;20.67;85.75;101972.75;5037146;28;19927;-66
2023/10/09 12:24:18;;;;;;;;;;;;;;;20.62;86.75;101970.22;5053045;28;20005;-67
2023/10/09 12:26:45;;;;;;;;;;;;;;;20.62;86.80;101956.06;5047355;28;19974;-67
2023/10/09 12:29:11;;;;;;;;;;;;;;;20.58;85.59;101958.81;5037643;28;19916;-67
2023/10/09 12:31:36;;;;;;;;;;;;;;;20.58;86.23;101964.13;5040909;28;19979;-67
2023/10/09 12:34:02;;;;;;;;;;;;;;;20.56;86.12;101963.34;5043030;28;19917;-67
2023/10/09 12:36:28;;;;;;;;;;;;;;;20.57;86.05;101956.19;5058411;28;19930;-67
2023/10/09 12:38:54;;;;;;;;;;;;;;;20.60;86.28;101956.97;5053657;28;19927;-67
2023/10/09 12:41:25;;;;;;;;;;;;;;;20.65;86.41;101953.28;5051701;28;19917;-66
2023/10/09 12:43:53;;;;;;;;;;;;;;;20.70;86.50;101946.91;5052923;28;19970;-68
2023/10/09 12:46:22;;;;;;;;;;;;;;;20.76;86.36;101945.81;5073439;28;19916;-66
2023/10/09 12:48:48;;;;;;;;;;;;;;;20.88;85.96;101939.13;5069720;28;19920;-64
2023/10/09 12:51:17;;;;;;;;;;;;;;;20.94;85.80;101936.22;5051046;28;19974;-65
2023/10/09 12:53:42;;;;;;;;;;;;;;;21.04;85.16;101931.44;5070378;28;19923;-67
2023/10/09 12:56:09;;;;;;;;;;;;;;;21.03;85.05;101927.91;5073362;28;20303;-66
2023/10/09 12:58:37;;;;;;;;;;;;;;;21.04;84.97;101918.97;5061474;28;19924;-65
2023/10/09 13:01:09;;;;;;;;;;;;;;;21.33;84.99;101922.28;5070374;28;19912;-64
2023/10/09 13:03:38;;;;;;;;;;;;;;;22.03;81.37;101920.34;5065668;28;20395;-65
2023/10/09 13:06:11;;;;;;;;;;;;;;;22.23;82.46;101924.81;5070208;28;19955;-64
2023/10/09 13:08:40;;;;;;;;;;;;;;;22.22;79.56;101920.38;5069675;28;20360;-64
2023/10/09 13:11:18;;;;;;;;;;;;;;;22.13;80.93;101927.00;5062052;28;20011;-63
2023/10/09 13:13:51;;;;;;;;;;;;;;;22.13;80.49;101910.97;5063656;28;19920;-64
2023/10/09 13:16:23;;;;;;;;;;;;;;;22.17;81.68;101916.19;5048807;28;20412;-66
2023/10/09 13:18:56;;;;;;;;;;;;;;;22.20;81.88;101932.94;5050218;28;20331;-64
2023/10/09 13:21:24;;;;;;;;;;;;;;;22.16;81.60;101923.34;5070044;28;19912;-64
2023/10/09 13:23:50;;;;;;;;;;;;;;;22.08;80.83;101929.03;5065841;28;19912;-67
2023/10/09 13:26:17;;;;;;;;;;;;;;;21.90;80.68;101933.31;5050029;28;20101;-65
2023/10/09 13:28:45;;;;;;;;;;;;;;;21.76;81.01;101925.03;5067810;28;20292;-64
2023/10/09 13:31:13;;;;;;;;;;;;;;;21.66;81.27;101927.22;5070111;28;19917;-65
2023/10/09 13:33:42;;;;;;;;;;;;;;;21.62;81.73;101939.81;5028408;28;20078;-64
2023/10/09 13:36:17;;;;;;;;;;;;;;;21.57;81.68;101948.94;5050979;28;20377;-66
2023/10/09 13:38:43;;;;;;;;;;;;;;;21.51;81.72;101938.50;5038286;28;19928;-65
2023/10/09 13:41:12;;;;;;;;;;;;;;;21.44;81.90;101933.38;5035490;28;19929;-64
2023/10/09 13:43:42;;;;;;;;;;;;;;;21.40;81.82;101941.56;5025656;28;19916;-64
2023/10/09 13:46:08;;;;;;;;;;;;;;;21.41;82.33;101938.00;5041443;28;19920;-64
2023/10/09 13:48:38;;;;;;;;;;;;;;;21.45;82.43;101939.59;5055326;28;19920;-67
2023/10/09 13:51:07;;;;;;;;;;;;;;;21.49;81.65;101937.66;5052515;28;19924;-66
2023/10/09 13:53:35;;;;;;;;;;;;;;;21.50;81.16;101939.41;5038566;28;19939;-67
2023/10/09 13:56:06;;;;;;;;;;;;;;;21.54;81.84;101955.25;5043695;28;19921;-67
2023/10/09 13:58:34;;;;;;;;;;;;;;;21.60;81.76;101948.81;5055372;28;20406;-66
2023/10/09 14:00:59;;;;;;;;;;;;;;;21.62;82.31;101952.25;5035932;28;20009;-66
2023/10/09 14:03:27;;;;;;;;;;;;;;;21.63;81.55;101949.53;5036829;28;19920;-64
2023/10/09 14:05:54;;;;;;;;;;;;;;;21.65;81.58;101946.84;5038325;28;19916;-64
2023/10/09 14:08:22;;;;;;;;;;;;;;;21.66;81.41;101950.34;5050955;28;19920;-64
2023/10/09 14:10:48;;;;;;;;;;;;;;;21.68;82.56;101949.38;5056707;28;19917;-64
2023/10/09 14:13:25;;;;;;;;;;;;;;;21.64;81.10;101947.75;5039544;28;20007;-64
2023/10/09 14:15:51;;;;;;;;;;;;;;;21.57;81.34;101943.59;5053811;28;20404;-64
2023/10/09 14:18:16;;;;;;;;;;;;;;;21.53;80.60;101940.16;5053997;28;19924;-64
2023/10/09 14:20:43;;;;;;;;;;;;;;;21.52;81.59;101941.13;5063502;28;19917;-64
2023/10/09 14:23:12;;;;;;;;;;;;;;;21.51;81.01;101933.16;5052280;28;19924;-64
2023/10/09 14:25:39;;;;;;;;;;;;;;;21.48;81.24;101934.16;5054311;28;19920;-64
2023/10/09 14:28:08;;;;;;;;;;;;;;;21.40;79.89;101933.56;5055560;28;21055;-64
2023/10/09 14:30:41;;;;;;;;;;;;;;;21.36;80.55;101929.28;5039636;28;19921;-64
2023/10/09 14:33:12;;;;;;;;;;;;;;;21.37;81.67;101931.03;5050822;28;20390;-64
2023/10/09 14:35:39;;;;;;;;;;;;;;;21.37;80.44;101942.56;5048688;28;20348;-64
2023/10/09 14:38:11;;;;;;;;;;;;;;;21.34;79.58;101937.34;5053150;28;19920;-64
2023/10/09 14:40:36;;;;;;;;;;;;;;;21.34;78.48;101939.16;5072602;28;20018;-64
2023/10/09 14:43:03;;;;;;;;;;;;;;;21.38;79.28;101930.97;5053023;28;19917;-65
2023/10/09 14:45:28;;;;;;;;;;;;;;;21.43;80.75;101931.66;5052731;28;19929;-64
2023/10/09 14:47:54;;;;;;;;;;;;;;;21.39;80.82;101929.16;5047746;28;19923;-64
2023/10/09 14:50:22;;;;;;;;;;;;;;;21.32;80.42;101931.22;5054169;28;19992;-65
2023/10/09 14:52:50;;;;;;;;;;;;;;;21.22;79.65;101920.06;5063681;28;19917;-64
2023/10/09 14:55:20;;;;;;;;;;;;;;;21.16;80.29;101914.09;5055247;28;19966;-64